Old Somerset, Virginia
Current Conditions -  °F | °C
As of 4:35 PM on Friday 28 Nov 2014 (Local Time) from KGVE Reporting Station
Clear Clear  
Wind Chill: 36°   Ceiling: Unl
Heat Index: 36°   Visibility: 7mi
Dew Point: 16°   Wind: 0mph
Humidity: 45%   Direction: NA
Pressure: 30.27"   Gusts: NA
Location:  38.2091°N, 78.2392°W
Report Text: KGVE 282135Z AUTO 00000KT 7SM CLR 02/M09 A3027 RMK AO1 T00211089
Loading
Personal Weather Stations






























Interactive Weather Map New forecast layout! Learn more

10-Day Weather Forecast

Advertisements
Track Severe Weather on mobile